sensor_id;sensor_type;location;lat;lon;timestamp;temperature;humidity
38902;DHT22;24661;53.566;9.910;2022-10-16T00:01:24;13.70;99.90
38902;DHT22;24661;53.566;9.910;2022-10-16T00:03:50;13.70;99.90
38902;DHT22;24661;53.566;9.910;2022-10-16T00:06:17;13.60;99.90
38902;DHT22;24661;53.566;9.910;2022-10-16T00:08:44;13.70;99.90
38902;DHT22;24661;53.566;9.910;2022-10-16T00:11:18;13.60;99.90
38902;DHT22;24661;53.566;9.910;2022-10-16T00:13:45;13.60;99.90
38902;DHT22;24661;53.566;9.910;2022-10-16T00:16:12;13.60;99.90
38902;DHT22;24661;53.566;9.910;2022-10-16T00:18:38;13.60;99.90
38902;DHT22;24661;53.566;9.910;2022-10-16T00:21:06;13.60;99.90
38902;DHT22;24661;53.566;9.910;2022-10-16T00:23:32;13.60;99.90
38902;DHT22;24661;53.566;9.910;2022-10-16T00:26:00;13.60;99.90
38902;DHT22;24661;53.566;9.910;2022-10-16T00:28:26;13.60;99.90
38902;DHT22;24661;53.566;9.910;2022-10-16T00:30:52;13.60;99.90
38902;DHT22;24661;53.566;9.910;2022-10-16T00:33:18;13.60;99.90
38902;DHT22;24661;53.566;9.910;2022-10-16T00:35:43;13.60;99.90
38902;DHT22;24661;53.566;9.910;2022-10-16T00:38:09;13.60;99.90
38902;DHT22;24661;53.566;9.910;2022-10-16T00:40:35;13.60;99.90
38902;DHT22;24661;53.566;9.910;2022-10-16T00:43:01;13.60;99.90
38902;DHT22;24661;53.566;9.910;2022-10-16T00:45:26;13.60;99.90
38902;DHT22;24661;53.566;9.910;2022-10-16T00:47:54;13.50;99.90
38902;DHT22;24661;53.566;9.910;2022-10-16T00:50:30;13.50;99.90
38902;DHT22;24661;53.566;9.910;2022-10-16T00:52:58;13.60;99.90
38902;DHT22;24661;53.566;9.910;2022-10-16T00:55:26;13.50;99.90
38902;DHT22;24661;53.566;9.910;2022-10-16T00:57:54;13.50;99.90
38902;DHT22;24661;53.566;9.910;2022-10-16T01:00:23;13.50;99.90
38902;DHT22;24661;53.566;9.910;2022-10-16T01:06:08;13.50;99.90
38902;DHT22;24661;53.566;9.910;2022-10-16T01:08:53;13.50;99.90
38902;DHT22;24661;53.566;9.910;2022-10-16T01:11:41;13.50;99.90
38902;DHT22;24661;53.566;9.910;2022-10-16T01:14:19;13.50;99.90
38902;DHT22;24661;53.566;9.910;2022-10-16T01:17:12;13.40;99.90
38902;DHT22;24661;53.566;9.910;2022-10-16T01:19:41;13.40;99.90
38902;DHT22;24661;53.566;9.910;2022-10-16T01:22:09;13.40;99.90
38902;DHT22;24661;53.566;9.910;2022-10-16T01:24:40;13.40;99.90
38902;DHT22;24661;53.566;9.910;2022-10-16T01:27:15;13.30;99.90
38902;DHT22;24661;53.566;9.910;2022-10-16T01:30:04;13.30;99.90
38902;DHT22;24661;53.566;9.910;2022-10-16T01:32:41;13.30;99.90
38902;DHT22;24661;53.566;9.910;2022-10-16T01:35:18;13.90;99.90
38902;DHT22;24661;53.566;9.910;2022-10-16T01:37:51;13.20;99.90
38902;DHT22;24661;53.566;9.910;2022-10-16T01:40:20;13.20;99.90
38902;DHT22;24661;53.566;9.910;2022-10-16T01:43:15;13.20;99.90
38902;DHT22;24661;53.566;9.910;2022-10-16T01:45:44;13.20;99.90
38902;DHT22;24661;53.566;9.910;2022-10-16T01:48:12;13.10;99.90
38902;DHT22;24661;53.566;9.910;2022-10-16T01:50:39;13.10;99.90
38902;DHT22;24661;53.566;9.910;2022-10-16T01:53:09;13.10;99.90
38902;DHT22;24661;53.566;9.910;2022-10-16T01:55:41;13.10;99.90
38902;DHT22;24661;53.566;9.910;2022-10-16T01:58:11;13.00;99.90
38902;DHT22;24661;53.566;9.910;2022-10-16T02:00:39;13.00;99.90
38902;DHT22;24661;53.566;9.910;2022-10-16T02:03:07;13.00;99.90
38902;DHT22;24661;53.566;9.910;2022-10-16T02:05:55;13.00;99.90
38902;DHT22;24661;53.566;9.910;2022-10-16T02:08:24;13.00;99.90
38902;DHT22;24661;53.566;9.910;2022-10-16T02:10:49;13.00;99.90
38902;DHT22;24661;53.566;9.910;2022-10-16T02:13:23;13.00;99.90
38902;DHT22;24661;53.566;9.910;2022-10-16T02:15:51;13.00;99.90
38902;DHT22;24661;53.566;9.910;2022-10-16T02:18:16;13.00;99.90
38902;DHT22;24661;53.566;9.910;2022-10-16T02:20:53;13.00;99.90
38902;DHT22;24661;53.566;9.910;2022-10-16T02:23:35;12.90;99.90
38902;DHT22;24661;53.566;9.910;2022-10-16T02:26:05;12.90;99.90
38902;DHT22;24661;53.566;9.910;2022-10-16T02:28:42;12.90;99.90
38902;DHT22;24661;53.566;9.910;2022-10-16T02:31:11;12.80;99.90
38902;DHT22;24661;53.566;9.910;2022-10-16T02:33:40;12.80;99.90
38902;DHT22;24661;53.566;9.910;2022-10-16T02:36:07;12.80;99.90
38902;DHT22;24661;53.566;9.910;2022-10-16T02:38:34;12.80;99.90
38902;DHT22;24661;53.566;9.910;2022-10-16T02:41:00;12.70;99.90
38902;DHT22;24661;53.566;9.910;2022-10-16T02:43:25;12.70;99.90
38902;DHT22;24661;53.566;9.910;2022-10-16T02:45:51;12.70;99.90
38902;DHT22;24661;53.566;9.910;2022-10-16T02:48:17;12.70;99.90
38902;DHT22;24661;53.566;9.910;2022-10-16T02:50:43;12.70;99.90
38902;DHT22;24661;53.566;9.910;2022-10-16T02:53:08;12.70;99.90
38902;DHT22;24661;53.566;9.910;2022-10-16T02:55:34;12.70;99.90
38902;DHT22;24661;53.566;9.910;2022-10-16T02:57:59;12.60;99.90
38902;DHT22;24661;53.566;9.910;2022-10-16T03:00:25;12.60;99.90
38902;DHT22;24661;53.566;9.910;2022-10-16T03:02:51;12.60;99.90
38902;DHT22;24661;53.566;9.910;2022-10-16T03:05:16;12.60;99.90
38902;DHT22;24661;53.566;9.910;2022-10-16T03:07:42;12.50;99.90
38902;DHT22;24661;53.566;9.910;2022-10-16T03:10:08;12.50;99.90
38902;DHT22;24661;53.566;9.910;2022-10-16T03:12:34;12.50;99.90
38902;DHT22;24661;53.566;9.910;2022-10-16T03:14:59;12.50;99.90
38902;DHT22;24661;53.566;9.910;2022-10-16T03:17:26;12.40;99.90
38902;DHT22;24661;53.566;9.910;2022-10-16T03:19:51;12.40;99.90
38902;DHT22;24661;53.566;9.910;2022-10-16T03:22:17;12.40;99.90
38902;DHT22;24661;53.566;9.910;2022-10-16T03:24:43;12.40;99.90
38902;DHT22;24661;53.566;9.910;2022-10-16T03:27:08;12.40;99.90
38902;DHT22;24661;53.566;9.910;2022-10-16T03:29:34;12.30;99.90
38902;DHT22;24661;53.566;9.910;2022-10-16T03:32:00;12.30;99.90
38902;DHT22;24661;53.566;9.910;2022-10-16T03:34:25;12.30;99.90
38902;DHT22;24661;53.566;9.910;2022-10-16T03:36:51;12.30;99.90
38902;DHT22;24661;53.566;9.910;2022-10-16T03:39:17;12.30;99.90
38902;DHT22;24661;53.566;9.910;2022-10-16T03:41:43;12.30;99.90
38902;DHT22;24661;53.566;9.910;2022-10-16T03:44:09;12.30;99.90
38902;DHT22;24661;53.566;9.910;2022-10-16T03:46:34;12.30;99.90
38902;DHT22;24661;53.566;9.910;2022-10-16T03:49:00;12.30;99.90
38902;DHT22;24661;53.566;9.910;2022-10-16T03:51:25;12.30;99.90
38902;DHT22;24661;53.566;9.910;2022-10-16T03:53:51;12.30;99.90
38902;DHT22;24661;53.566;9.910;2022-10-16T03:56:16;11.90;99.90
38902;DHT22;24661;53.566;9.910;2022-10-16T03:58:42;12.30;99.90
38902;DHT22;24661;53.566;9.910;2022-10-16T04:01:08;12.40;99.90
38902;DHT22;24661;53.566;9.910;2022-10-16T04:03:33;12.40;99.90
38902;DHT22;24661;53.566;9.910;2022-10-16T04:05:59;12.40;99.90
38902;DHT22;24661;53.566;9.910;2022-10-16T04:08:24;12.40;99.90
38902;DHT22;24661;53.566;9.910;2022-10-16T04:10:50;12.40;99.90
38902;DHT22;24661;53.566;9.910;2022-10-16T04:13:16;12.30;99.90
38902;DHT22;24661;53.566;9.910;2022-10-16T04:15:41;12.30;99.90
38902;DHT22;24661;53.566;9.910;2022-10-16T04:18:07;12.30;99.90
38902;DHT22;24661;53.566;9.910;2022-10-16T04:20:33;12.30;99.90
38902;DHT22;24661;53.566;9.910;2022-10-16T04:22:59;12.30;99.90
38902;DHT22;24661;53.566;9.910;2022-10-16T04:25:25;12.30;99.90
38902;DHT22;24661;53.566;9.910;2022-10-16T04:27:53;12.30;99.90
38902;DHT22;24661;53.566;9.910;2022-10-16T04:30:19;12.30;99.90
38902;DHT22;24661;53.566;9.910;2022-10-16T04:32:48;12.30;99.90
38902;DHT22;24661;53.566;9.910;2022-10-16T04:35:15;12.30;99.90
38902;DHT22;24661;53.566;9.910;2022-10-16T04:37:40;12.30;99.90
38902;DHT22;24661;53.566;9.910;2022-10-16T04:40:06;12.20;99.90
38902;DHT22;24661;53.566;9.910;2022-10-16T04:42:32;12.30;99.90
38902;DHT22;24661;53.566;9.910;2022-10-16T04:44:58;12.20;99.90
38902;DHT22;24661;53.566;9.910;2022-10-16T04:47:23;12.30;99.90
38902;DHT22;24661;53.566;9.910;2022-10-16T04:49:49;12.30;99.90
38902;DHT22;24661;53.566;9.910;2022-10-16T04:52:14;12.20;99.90
38902;DHT22;24661;53.566;9.910;2022-10-16T04:54:40;12.20;99.90
38902;DHT22;24661;53.566;9.910;2022-10-16T04:57:08;12.30;99.90
38902;DHT22;24661;53.566;9.910;2022-10-16T04:59:34;12.20;99.90
38902;DHT22;24661;53.566;9.910;2022-10-16T05:01:59;12.20;99.90
38902;DHT22;24661;53.566;9.910;2022-10-16T05:04:25;12.20;99.90
38902;DHT22;24661;53.566;9.910;2022-10-16T05:06:50;12.20;99.90
38902;DHT22;24661;53.566;9.910;2022-10-16T05:09:16;12.20;99.90
38902;DHT22;24661;53.566;9.910;2022-10-16T05:11:41;12.20;99.90
38902;DHT22;24661;53.566;9.910;2022-10-16T05:14:07;13.20;99.90
38902;DHT22;24661;53.566;9.910;2022-10-16T05:16:32;12.20;99.90
38902;DHT22;24661;53.566;9.910;2022-10-16T05:18:58;12.10;99.90
38902;DHT22;24661;53.566;9.910;2022-10-16T05:21:23;12.20;99.90
38902;DHT22;24661;53.566;9.910;2022-10-16T05:23:49;12.20;99.90
38902;DHT22;24661;53.566;9.910;2022-10-16T05:26:15;12.10;99.90
38902;DHT22;24661;53.566;9.910;2022-10-16T05:28:40;12.10;99.90
38902;DHT22;24661;53.566;9.910;2022-10-16T05:31:07;12.10;99.90
38902;DHT22;24661;53.566;9.910;2022-10-16T05:33:34;12.10;99.90
38902;DHT22;24661;53.566;9.910;2022-10-16T05:36:07;12.10;99.90
38902;DHT22;24661;53.566;9.910;2022-10-16T05:38:34;12.10;99.90
38902;DHT22;24661;53.566;9.910;2022-10-16T05:40:59;12.20;99.90
38902;DHT22;24661;53.566;9.910;2022-10-16T05:43:27;12.20;99.90
38902;DHT22;24661;53.566;9.910;2022-10-16T05:46:02;12.20;99.90
38902;DHT22;24661;53.566;9.910;2022-10-16T05:48:29;12.30;99.90
38902;DHT22;24661;53.566;9.910;2022-10-16T05:51:09;12.30;99.90
38902;DHT22;24661;53.566;9.910;2022-10-16T05:53:37;12.40;99.90
38902;DHT22;24661;53.566;9.910;2022-10-16T05:56:04;12.40;99.90
38902;DHT22;24661;53.566;9.910;2022-10-16T05:58:31;12.40;99.90
38902;DHT22;24661;53.566;9.910;2022-10-16T06:01:03;12.40;99.90
38902;DHT22;24661;53.566;9.910;2022-10-16T06:03:28;12.50;99.90
38902;DHT22;24661;53.566;9.910;2022-10-16T06:05:54;12.50;99.90
38902;DHT22;24661;53.566;9.910;2022-10-16T06:08:21;12.60;99.90
38902;DHT22;24661;53.566;9.910;2022-10-16T06:10:47;12.50;99.90
38902;DHT22;24661;53.566;9.910;2022-10-16T06:13:14;12.60;99.90
38902;DHT22;24661;53.566;9.910;2022-10-16T06:15:41;12.60;99.90
38902;DHT22;24661;53.566;9.910;2022-10-16T06:18:08;12.60;99.90
38902;DHT22;24661;53.566;9.910;2022-10-16T06:20:34;12.60;99.90
38902;DHT22;24661;53.566;9.910;2022-10-16T06:23:00;12.60;99.90
38902;DHT22;24661;53.566;9.910;2022-10-16T06:25:25;12.60;99.90
38902;DHT22;24661;53.566;9.910;2022-10-16T06:27:51;12.60;99.90
38902;DHT22;24661;53.566;9.910;2022-10-16T06:30:17;12.60;99.90
38902;DHT22;24661;53.566;9.910;2022-10-16T06:32:42;12.60;99.90
38902;DHT22;24661;53.566;9.910;2022-10-16T06:35:08;12.60;99.90
38902;DHT22;24661;53.566;9.910;2022-10-16T06:37:33;12.60;99.90
38902;DHT22;24661;53.566;9.910;2022-10-16T06:39:59;12.70;99.90
38902;DHT22;24661;53.566;9.910;2022-10-16T06:42:25;12.70;99.90
38902;DHT22;24661;53.566;9.910;2022-10-16T06:44:51;12.80;99.90
38902;DHT22;24661;53.566;9.910;2022-10-16T06:47:16;12.80;99.90
38902;DHT22;24661;53.566;9.910;2022-10-16T06:49:42;12.80;99.90
38902;DHT22;24661;53.566;9.910;2022-10-16T06:52:08;12.80;99.90
38902;DHT22;24661;53.566;9.910;2022-10-16T06:54:33;12.90;99.90
38902;DHT22;24661;53.566;9.910;2022-10-16T06:56:59;12.90;99.90
38902;DHT22;24661;53.566;9.910;2022-10-16T06:59:26;13.00;99.90
38902;DHT22;24661;53.566;9.910;2022-10-16T07:01:52;13.00;99.90
38902;DHT22;24661;53.566;9.910;2022-10-16T07:04:17;13.10;99.90
38902;DHT22;24661;53.566;9.910;2022-10-16T07:06:43;13.10;99.90
38902;DHT22;24661;53.566;9.910;2022-10-16T07:09:09;13.20;99.90
38902;DHT22;24661;53.566;9.910;2022-10-16T07:11:37;13.40;99.90
38902;DHT22;24661;53.566;9.910;2022-10-16T07:14:03;13.40;99.90
38902;DHT22;24661;53.566;9.910;2022-10-16T07:16:30;13.50;99.90
38902;DHT22;24661;53.566;9.910;2022-10-16T07:18:58;13.60;99.90
38902;DHT22;24661;53.566;9.910;2022-10-16T07:21:28;13.60;99.90
38902;DHT22;24661;53.566;9.910;2022-10-16T07:23:57;13.60;99.90
38902;DHT22;24661;53.566;9.910;2022-10-16T07:26:23;13.70;99.90
38902;DHT22;24661;53.566;9.910;2022-10-16T07:28:49;13.60;99.90
38902;DHT22;24661;53.566;9.910;2022-10-16T07:31:16;13.60;99.90
38902;DHT22;24661;53.566;9.910;2022-10-16T07:33:43;13.60;99.90
38902;DHT22;24661;53.566;9.910;2022-10-16T07:36:11;13.60;99.90
38902;DHT22;24661;53.566;9.910;2022-10-16T07:38:37;13.70;99.90
38902;DHT22;24661;53.566;9.910;2022-10-16T07:41:05;13.70;99.90
38902;DHT22;24661;53.566;9.910;2022-10-16T07:43:32;13.80;99.90
38902;DHT22;24661;53.566;9.910;2022-10-16T07:45:58;13.90;99.90
38902;DHT22;24661;53.566;9.910;2022-10-16T07:48:26;13.90;99.90
38902;DHT22;24661;53.566;9.910;2022-10-16T07:50:52;14.00;99.90
38902;DHT22;24661;53.566;9.910;2022-10-16T07:53:17;14.10;99.90
38902;DHT22;24661;53.566;9.910;2022-10-16T07:55:43;14.20;99.90
38902;DHT22;24661;53.566;9.910;2022-10-16T07:58:09;14.20;99.90
38902;DHT22;24661;53.566;9.910;2022-10-16T08:00:36;14.20;99.90
38902;DHT22;24661;53.566;9.910;2022-10-16T08:03:02;14.20;99.90
38902;DHT22;24661;53.566;9.910;2022-10-16T08:05:30;14.10;99.90
38902;DHT22;24661;53.566;9.910;2022-10-16T08:07:56;14.20;99.90
38902;DHT22;24661;53.566;9.910;2022-10-16T08:10:24;14.10;99.90
38902;DHT22;24661;53.566;9.910;2022-10-16T08:12:51;14.00;99.90
38902;DHT22;24661;53.566;9.910;2022-10-16T08:15:17;14.00;99.90
38902;DHT22;24661;53.566;9.910;2022-10-16T08:17:42;14.00;99.90
38902;DHT22;24661;53.566;9.910;2022-10-16T08:20:09;14.00;99.90
38902;DHT22;24661;53.566;9.910;2022-10-16T08:22:35;14.00;99.90
38902;DHT22;24661;53.566;9.910;2022-10-16T08:25:00;14.80;99.90
38902;DHT22;24661;53.566;9.910;2022-10-16T08:27:31;14.00;99.90
38902;DHT22;24661;53.566;9.910;2022-10-16T08:29:57;14.20;99.90
38902;DHT22;24661;53.566;9.910;2022-10-16T08:32:23;14.30;99.90
38902;DHT22;24661;53.566;9.910;2022-10-16T08:34:48;14.30;99.90
38902;DHT22;24661;53.566;9.910;2022-10-16T08:37:14;14.40;99.90
38902;DHT22;24661;53.566;9.910;2022-10-16T08:39:40;14.60;99.90
38902;DHT22;24661;53.566;9.910;2022-10-16T08:42:11;14.60;99.90
38902;DHT22;24661;53.566;9.910;2022-10-16T08:47:26;14.70;99.90
38902;DHT22;24661;53.566;9.910;2022-10-16T08:50:24;14.80;99.90
38902;DHT22;24661;53.566;9.910;2022-10-16T08:52:51;14.80;99.90
38902;DHT22;24661;53.566;9.910;2022-10-16T08:55:43;14.80;99.90
38902;DHT22;24661;53.566;9.910;2022-10-16T08:58:22;14.90;99.90
38902;DHT22;24661;53.566;9.910;2022-10-16T09:00:54;15.00;99.90
38902;DHT22;24661;53.566;9.910;2022-10-16T09:03:48;15.10;99.90
38902;DHT22;24661;53.566;9.910;2022-10-16T09:07:12;15.10;99.90
38902;DHT22;24661;53.566;9.910;2022-10-16T09:13:03;15.40;99.90
38902;DHT22;24661;53.566;9.910;2022-10-16T09:15:41;15.40;99.90
38902;DHT22;24661;53.566;9.910;2022-10-16T09:23:29;15.80;99.90
38902;DHT22;24661;53.566;9.910;2022-10-16T09:25:56;15.90;99.90
38902;DHT22;24661;53.566;9.910;2022-10-16T09:28:23;15.90;99.90
38902;DHT22;24661;53.566;9.910;2022-10-16T09:30:49;16.10;99.90
38902;DHT22;24661;53.566;9.910;2022-10-16T09:33:17;16.10;99.90
38902;DHT22;24661;53.566;9.910;2022-10-16T09:35:54;16.10;99.90
38902;DHT22;24661;53.566;9.910;2022-10-16T09:38:34;16.10;99.90
38902;DHT22;24661;53.566;9.910;2022-10-16T09:41:11;16.10;99.90
38902;DHT22;24661;53.566;9.910;2022-10-16T09:43:58;16.10;99.90
38902;DHT22;24661;53.566;9.910;2022-10-16T09:46:30;16.20;99.90
38902;DHT22;24661;53.566;9.910;2022-10-16T09:49:25;16.20;99.90
38902;DHT22;24661;53.566;9.910;2022-10-16T09:51:50;16.30;99.90
38902;DHT22;24661;53.566;9.910;2022-10-16T09:54:19;16.40;99.90
38902;DHT22;24661;53.566;9.910;2022-10-16T09:56:45;16.50;99.90
38902;DHT22;24661;53.566;9.910;2022-10-16T09:59:16;16.60;99.90
38902;DHT22;24661;53.566;9.910;2022-10-16T10:01:44;16.80;99.90
38902;DHT22;24661;53.566;9.910;2022-10-16T10:04:11;16.70;99.90
38902;DHT22;24661;53.566;9.910;2022-10-16T10:06:43;16.80;99.90
38902;DHT22;24661;53.566;9.910;2022-10-16T10:19:38;16.90;99.90
38902;DHT22;24661;53.566;9.910;2022-10-16T10:30:59;16.90;99.90
38902;DHT22;24661;53.566;9.910;2022-10-16T10:33:47;16.90;99.90
38902;DHT22;24661;53.566;9.910;2022-10-16T10:36:34;16.90;99.90
38902;DHT22;24661;53.566;9.910;2022-10-16T10:39:13;17.00;99.90
38902;DHT22;24661;53.566;9.910;2022-10-16T10:52:53;17.20;99.90
38902;DHT22;24661;53.566;9.910;2022-10-16T10:56:05;17.20;99.90
38902;DHT22;24661;53.566;9.910;2022-10-16T11:01:26;17.20;99.90
38902;DHT22;24661;53.566;9.910;2022-10-16T11:04:19;17.10;99.90
38902;DHT22;24661;53.566;9.910;2022-10-16T11:06:52;17.20;99.90
38902;DHT22;24661;53.566;9.910;2022-10-16T11:09:45;17.20;99.90
38902;DHT22;24661;53.566;9.910;2022-10-16T11:12:17;17.30;99.90
38902;DHT22;24661;53.566;9.910;2022-10-16T11:15:07;17.30;99.90
38902;DHT22;24661;53.566;9.910;2022-10-16T11:17:59;17.30;99.90
38902;DHT22;24661;53.566;9.910;2022-10-16T11:20:41;17.30;99.90
38902;DHT22;24661;53.566;9.910;2022-10-16T11:23:25;17.40;99.90
38902;DHT22;24661;53.566;9.910;2022-10-16T11:25:52;17.50;99.90
38902;DHT22;24661;53.566;9.910;2022-10-16T11:28:47;17.50;99.90
38902;DHT22;24661;53.566;9.910;2022-10-16T11:31:25;17.60;99.90
38902;DHT22;24661;53.566;9.910;2022-10-16T11:36:58;17.70;99.90
38902;DHT22;24661;53.566;9.910;2022-10-16T11:39:28;17.70;99.90
38902;DHT22;24661;53.566;9.910;2022-10-16T11:42:10;17.60;99.90
38902;DHT22;24661;53.566;9.910;2022-10-16T11:44:54;17.50;99.90
38902;DHT22;24661;53.566;9.910;2022-10-16T11:47:45;17.50;99.90
38902;DHT22;24661;53.566;9.910;2022-10-16T11:50:17;17.60;99.90
38902;DHT22;24661;53.566;9.910;2022-10-16T11:53:08;17.30;99.90
38902;DHT22;24661;53.566;9.910;2022-10-16T11:55:39;17.40;99.90
38902;DHT22;24661;53.566;9.910;2022-10-16T11:58:35;17.40;99.90
38902;DHT22;24661;53.566;9.910;2022-10-16T12:01:19;17.40;99.90
38902;DHT22;24661;53.566;9.910;2022-10-16T12:08:53;17.20;99.90
38902;DHT22;24661;53.566;9.910;2022-10-16T12:17:34;17.60;99.90
38902;DHT22;24661;53.566;9.910;2022-10-16T12:22:59;17.70;99.90
38902;DHT22;24661;53.566;9.910;2022-10-16T12:25:32;17.80;99.90
38902;DHT22;24661;53.566;9.910;2022-10-16T12:28:17;17.70;99.90
38902;DHT22;24661;53.566;9.910;2022-10-16T12:30:52;17.70;99.90
38902;DHT22;24661;53.566;9.910;2022-10-16T12:33:29;17.80;99.90
38902;DHT22;24661;53.566;9.910;2022-10-16T12:35:56;17.90;99.90
38902;DHT22;24661;53.566;9.910;2022-10-16T12:38:46;18.00;99.90
38902;DHT22;24661;53.566;9.910;2022-10-16T12:41:31;18.10;99.90
38902;DHT22;24661;53.566;9.910;2022-10-16T12:43:58;18.00;99.90
38902;DHT22;24661;53.566;9.910;2022-10-16T12:51:37;18.10;99.90
38902;DHT22;24661;53.566;9.910;2022-10-16T12:54:12;18.20;99.90
38902;DHT22;24661;53.566;9.910;2022-10-16T12:59:39;18.20;99.90
38902;DHT22;24661;53.566;9.910;2022-10-16T13:02:39;18.30;99.90
38902;DHT22;24661;53.566;9.910;2022-10-16T13:08:32;18.20;99.90
38902;DHT22;24661;53.566;9.910;2022-10-16T13:14:42;18.10;99.90
38902;DHT22;24661;53.566;9.910;2022-10-16T13:20:36;18.00;99.90
38902;DHT22;24661;53.566;9.910;2022-10-16T13:26:15;17.90;99.90
38902;DHT22;24661;53.566;9.910;2022-10-16T13:28:42;18.00;99.90
38902;DHT22;24661;53.566;9.910;2022-10-16T13:31:21;17.90;99.90
38902;DHT22;24661;53.566;9.910;2022-10-16T13:33:51;19.30;99.90
38902;DHT22;24661;53.566;9.910;2022-10-16T13:36:22;17.60;99.90
38902;DHT22;24661;53.566;9.910;2022-10-16T13:38:48;17.60;99.90
38902;DHT22;24661;53.566;9.910;2022-10-16T13:41:18;18.60;99.90
38902;DHT22;24661;53.566;9.910;2022-10-16T13:43:52;18.60;99.90
38902;DHT22;24661;53.566;9.910;2022-10-16T13:46:22;17.90;99.90
38902;DHT22;24661;53.566;9.910;2022-10-16T13:48:58;17.70;99.90
38902;DHT22;24661;53.566;9.910;2022-10-16T13:51:24;17.90;99.90
38902;DHT22;24661;53.566;9.910;2022-10-16T13:53:50;20.40;99.90
38902;DHT22;24661;53.566;9.910;2022-10-16T13:56:19;22.10;99.90
38902;DHT22;24661;53.566;9.910;2022-10-16T13:58:45;22.00;99.90
38902;DHT22;24661;53.566;9.910;2022-10-16T14:01:20;21.00;99.90
38902;DHT22;24661;53.566;9.910;2022-10-16T14:03:49;20.00;99.90
38902;DHT22;24661;53.566;9.910;2022-10-16T14:06:18;19.60;99.90
38902;DHT22;24661;53.566;9.910;2022-10-16T14:09:00;18.90;99.90
38902;DHT22;24661;53.566;9.910;2022-10-16T14:11:26;18.60;99.90
38902;DHT22;24661;53.566;9.910;2022-10-16T14:13:53;18.50;99.90
38902;DHT22;24661;53.566;9.910;2022-10-16T14:16:26;18.30;99.90
38902;DHT22;24661;53.566;9.910;2022-10-16T14:18:57;18.10;99.90
38902;DHT22;24661;53.566;9.910;2022-10-16T14:21:24;18.00;99.90
38902;DHT22;24661;53.566;9.910;2022-10-16T14:23:50;18.00;99.90
38902;DHT22;24661;53.566;9.910;2022-10-16T14:26:22;17.90;99.90
38902;DHT22;24661;53.566;9.910;2022-10-16T14:28:49;17.90;99.90
38902;DHT22;24661;53.566;9.910;2022-10-16T14:31:31;17.10;99.90
38902;DHT22;24661;53.566;9.910;2022-10-16T14:33:58;17.80;99.90
38902;DHT22;24661;53.566;9.910;2022-10-16T14:36:26;17.70;99.90
38902;DHT22;24661;53.566;9.910;2022-10-16T14:39:04;17.60;99.90
38902;DHT22;24661;53.566;9.910;2022-10-16T14:41:32;17.60;99.90
38902;DHT22;24661;53.566;9.910;2022-10-16T14:44:03;17.50;99.90
38902;DHT22;24661;53.566;9.910;2022-10-16T14:46:34;17.40;99.90
38902;DHT22;24661;53.566;9.910;2022-10-16T14:49:17;17.30;99.90
38902;DHT22;24661;53.566;9.910;2022-10-16T14:51:45;17.30;99.90
38902;DHT22;24661;53.566;9.910;2022-10-16T14:54:16;17.30;99.90
38902;DHT22;24661;53.566;9.910;2022-10-16T14:56:51;17.30;99.90
38902;DHT22;24661;53.566;9.910;2022-10-16T14:59:27;17.30;99.90
38902;DHT22;24661;53.566;9.910;2022-10-16T15:01:53;17.20;99.90
38902;DHT22;24661;53.566;9.910;2022-10-16T15:04:19;17.20;99.90
38902;DHT22;24661;53.566;9.910;2022-10-16T15:06:45;17.10;99.90
38902;DHT22;24661;53.566;9.910;2022-10-16T15:09:11;17.10;99.90
38902;DHT22;24661;53.566;9.910;2022-10-16T15:11:36;17.00;99.90
38902;DHT22;24661;53.566;9.910;2022-10-16T15:14:02;17.00;99.90
38902;DHT22;24661;53.566;9.910;2022-10-16T15:16:29;16.90;99.90
38902;DHT22;24661;53.566;9.910;2022-10-16T15:18:55;16.90;99.90
38902;DHT22;24661;53.566;9.910;2022-10-16T15:21:25;16.80;99.90
38902;DHT22;24661;53.566;9.910;2022-10-16T15:23:51;16.80;99.90
38902;DHT22;24661;53.566;9.910;2022-10-16T15:26:17;16.80;99.90
38902;DHT22;24661;53.566;9.910;2022-10-16T15:28:43;16.70;99.90
38902;DHT22;24661;53.566;9.910;2022-10-16T15:31:08;16.70;99.90
38902;DHT22;24661;53.566;9.910;2022-10-16T15:33:34;16.70;99.90
38902;DHT22;24661;53.566;9.910;2022-10-16T15:36:01;16.70;99.90
38902;DHT22;24661;53.566;9.910;2022-10-16T15:38:28;16.60;99.90
38902;DHT22;24661;53.566;9.910;2022-10-16T15:40:54;16.50;99.90
38902;DHT22;24661;53.566;9.910;2022-10-16T15:43:20;16.40;99.90
38902;DHT22;24661;53.566;9.910;2022-10-16T15:46:02;16.50;99.90
38902;DHT22;24661;53.566;9.910;2022-10-16T15:48:29;16.20;99.90
38902;DHT22;24661;53.566;9.910;2022-10-16T15:50:55;16.20;99.90
38902;DHT22;24661;53.566;9.910;2022-10-16T15:53:21;16.10;99.90
38902;DHT22;24661;53.566;9.910;2022-10-16T15:55:46;16.10;99.90
38902;DHT22;24661;53.566;9.910;2022-10-16T15:58:12;16.00;99.90
38902;DHT22;24661;53.566;9.910;2022-10-16T16:00:38;15.90;99.90
38902;DHT22;24661;53.566;9.910;2022-10-16T16:03:03;15.80;99.90
38902;DHT22;24661;53.566;9.910;2022-10-16T16:05:29;15.70;99.90
38902;DHT22;24661;53.566;9.910;2022-10-16T16:07:56;14.70;99.90
38902;DHT22;24661;53.566;9.910;2022-10-16T16:10:22;15.60;99.90
38902;DHT22;24661;53.566;9.910;2022-10-16T16:12:48;15.40;99.90
38902;DHT22;24661;53.566;9.910;2022-10-16T16:15:17;15.20;99.90
38902;DHT22;24661;53.566;9.910;2022-10-16T16:17:43;15.10;99.90
38902;DHT22;24661;53.566;9.910;2022-10-16T16:20:10;14.90;99.90
38902;DHT22;24661;53.566;9.910;2022-10-16T16:22:36;14.80;99.90
38902;DHT22;24661;53.566;9.910;2022-10-16T16:25:01;14.70;99.90
38902;DHT22;24661;53.566;9.910;2022-10-16T16:27:27;14.50;99.90
38902;DHT22;24661;53.566;9.910;2022-10-16T16:29:55;14.40;99.90
38902;DHT22;24661;53.566;9.910;2022-10-16T16:32:21;14.30;99.90
38902;DHT22;24661;53.566;9.910;2022-10-16T16:34:46;14.20;99.90
38902;DHT22;24661;53.566;9.910;2022-10-16T16:37:12;14.10;99.90
38902;DHT22;24661;53.566;9.910;2022-10-16T16:39:38;14.00;99.90
38902;DHT22;24661;53.566;9.910;2022-10-16T16:42:03;13.90;99.90
38902;DHT22;24661;53.566;9.910;2022-10-16T16:44:32;13.90;99.90
38902;DHT22;24661;53.566;9.910;2022-10-16T16:46:58;13.80;99.90
38902;DHT22;24661;53.566;9.910;2022-10-16T16:49:23;13.70;99.90
38902;DHT22;24661;53.566;9.910;2022-10-16T16:51:49;13.50;99.90
38902;DHT22;24661;53.566;9.910;2022-10-16T16:54:14;13.50;99.90
38902;DHT22;24661;53.566;9.910;2022-10-16T16:56:40;13.40;99.90
38902;DHT22;24661;53.566;9.910;2022-10-16T16:59:13;13.30;99.90
38902;DHT22;24661;53.566;9.910;2022-10-16T17:01:40;13.30;99.90
38902;DHT22;24661;53.566;9.910;2022-10-16T17:04:05;13.20;99.90
38902;DHT22;24661;53.566;9.910;2022-10-16T17:06:31;13.20;99.90
38902;DHT22;24661;53.566;9.910;2022-10-16T17:08:57;13.10;99.90
38902;DHT22;24661;53.566;9.910;2022-10-16T17:11:25;13.10;99.90
38902;DHT22;24661;53.566;9.910;2022-10-16T17:13:52;13.00;99.90